Time;durP1;ratioP1;P1;durP2;ratioP2;P2;SDS_P1;SDS_P2;PMS_P1;PMS_P2;Temp;Humidity;BMP_temperature;BMP_pressure;BME280_temperature;BME280_humidity;BME280_pressure;Samples;Min_cycle;Max_cycle;Signal;HPM_P1;HPM_P2
2022/01/20 00:02:17;;;;;;;17.20;6.68;;;20.40;52.30;;;;;;5015422;28;20079;-62
2022/01/20 00:04:49;;;;;;;17.15;7.30;;;20.40;51.60;;;;;;5033186;28;20041;-62
2022/01/20 00:26:30;;;;;;;14.38;6.85;;;20.20;51.30;;;;;;5032626;28;20485;-62
2022/01/20 00:28:59;;;;;;;15.55;7.18;;;20.20;51.30;;;;;;5031913;28;20060;-62
2022/01/20 00:31:36;;;;;;;13.52;6.53;;;20.20;51.20;;;;;;5032409;28;20049;-62
2022/01/20 00:34:15;;;;;;;14.35;6.60;;;20.10;51.10;;;;;;5031731;28;20049;-62
2022/01/20 00:39:26;;;;;;;14.88;6.18;;;20.20;51.10;;;;;;5032226;28;20057;-62
2022/01/20 00:41:51;;;;;;;14.02;7.25;;;20.10;51.00;;;;;;5031944;28;20542;-62
2022/01/20 00:44:17;;;;;;;14.93;6.10;;;20.10;50.90;;;;;;5014558;28;20049;-63
2022/01/20 00:46:42;;;;;;;13.30;5.78;;;20.10;50.90;;;;;;5032369;28;20069;-62
2022/01/20 00:49:08;;;;;;;13.75;5.97;;;20.10;51.00;;;;;;5031404;28;20087;-62
2022/01/20 00:51:33;;;;;;;15.07;6.45;;;20.10;50.90;;;;;;5032231;28;20050;-62
2022/01/20 00:53:59;;;;;;;13.45;6.13;;;20.10;50.90;;;;;;5032490;28;20099;-62
2022/01/20 00:56:24;;;;;;;12.60;6.40;;;20.10;50.90;;;;;;5031531;28;20041;-62
2022/01/20 00:58:50;;;;;;;13.68;6.00;;;20.10;50.90;;;;;;5032411;28;20401;-62
2022/01/20 01:01:15;;;;;;;12.38;6.05;;;20.00;51.60;;;;;;5031809;28;20141;-62
2022/01/20 01:03:41;;;;;;;13.52;5.80;;;20.00;50.90;;;;;;5031347;28;20119;-62
2022/01/20 01:08:39;;;;;;;11.27;5.18;;;20.00;50.90;;;;;;5032569;28;20057;-62
2022/01/20 01:11:04;;;;;;;13.55;5.10;;;20.00;50.80;;;;;;5031271;28;20041;-62
2022/01/20 01:13:30;;;;;;;12.00;5.32;;;20.00;50.80;;;;;;5032242;28;20056;-62
2022/01/20 01:15:56;;;;;;;11.50;5.32;;;19.90;50.70;;;;;;5032217;28;20053;-62
2022/01/20 01:21:13;;;;;;;13.57;5.40;;;20.00;50.90;;;;;;5032120;28;20050;-62
2022/01/20 01:23:42;;;;;;;12.98;5.40;;;20.00;50.80;;;;;;5031704;28;20053;-62
2022/01/20 01:26:10;;;;;;;13.20;5.00;;;20.00;50.80;;;;;;5032051;28;20037;-62
2022/01/20 01:28:36;;;;;;;;;;;20.00;50.80;;;;;;5032032;28;20056;-62
2022/01/20 01:33:58;;;;;;;10.18;4.13;;;20.00;50.80;;;;;;5032146;28;20045;-62
2022/01/20 01:36:26;;;;;;;9.57;4.60;;;19.90;50.60;;;;;;5034859;28;20084;-62
2022/01/20 01:38:51;;;;;;;9.82;4.57;;;19.90;50.60;;;;;;5035144;28;20046;-62
2022/01/20 01:41:25;;;;;;;11.48;4.65;;;19.90;50.60;;;;;;5035667;28;20049;-62
2022/01/20 01:43:52;;;;;;;10.48;4.35;;;19.90;50.60;;;;;;5035896;28;20038;-62
2022/01/20 01:46:18;;;;;;;10.98;4.18;;;19.90;50.60;;;;;;5034176;28;20485;-61
2022/01/20 01:48:44;;;;;;;10.00;3.80;;;20.00;50.70;;;;;;5035618;28;20057;-62
2022/01/20 01:51:10;;;;;;;8.55;3.60;;;19.90;50.60;;;;;;5018032;28;20057;-62
2022/01/20 01:53:37;;;;;;;9.60;4.10;;;19.90;50.60;;;;;;5034651;28;20041;-62
2022/01/20 01:56:03;;;;;;;9.05;3.90;;;19.90;50.50;;;;;;5035784;28;20045;-62
2022/01/20 01:58:29;;;;;;;9.60;3.88;;;19.90;50.50;;;;;;5034722;28;20048;-62
2022/01/20 02:00:55;;;;;;;10.38;3.85;;;19.90;50.50;;;;;;5035264;28;20058;-62
2022/01/20 02:03:21;;;;;;;7.57;3.40;;;19.90;50.50;;;;;;5035102;28;20037;-62
2022/01/20 02:06:25;;;;;;;9.02;3.58;;;19.90;50.40;;;;;;5034762;28;20041;-62
2022/01/20 02:09:01;;;;;;;8.65;3.67;;;19.90;50.40;;;;;;5034930;28;20056;-62
2022/01/20 02:19:44;;;;;;;8.10;3.15;;;19.90;50.40;;;;;;5034210;28;20077;-62
2022/01/20 02:22:10;;;;;;;8.05;3.03;;;19.90;50.30;;;;;;5016940;28;20053;-62
2022/01/20 02:24:35;;;;;;;8.07;2.95;;;19.90;50.20;;;;;;5034247;28;20103;-62
2022/01/20 02:27:01;;;;;;;8.38;2.80;;;19.90;50.20;;;;;;5034347;28;20048;-62
2022/01/20 02:29:26;;;;;;;6.30;2.55;;;19.90;50.20;;;;;;5034304;28;20049;-62
2022/01/20 02:31:54;;;;;;;10.07;2.92;;;19.90;50.10;;;;;;5034545;28;20077;-62
2022/01/20 02:34:21;;;;;;;6.60;3.03;;;19.90;50.10;;;;;;5033734;28;20088;-62
2022/01/20 02:36:47;;;;;;;8.50;2.58;;;19.90;50.10;;;;;;5034929;28;20049;-62
2022/01/20 02:47:16;;;;;;;6.68;2.30;;;19.90;50.20;;;;;;5033084;28;20050;-62
2022/01/20 02:49:41;;;;;;;4.55;1.73;;;19.90;50.20;;;;;;5033565;28;20083;-62
2022/01/20 02:52:07;;;;;;;7.30;2.70;;;19.90;50.20;;;;;;5034250;28;20405;-62
2022/01/20 02:54:32;;;;;;;7.82;2.47;;;19.90;50.10;;;;;;5034256;28;20060;-62
2022/01/20 02:56:59;;;;;;;6.05;2.13;;;19.80;50.10;;;;;;5033663;28;20397;-62
2022/01/20 02:59:24;;;;;;;5.55;2.28;;;19.90;50.10;;;;;;5033204;28;20049;-62
2022/01/20 03:01:50;;;;;;;6.05;2.20;;;19.90;50.10;;;;;;5032367;28;20124;-62
2022/01/20 03:04:15;;;;;;;7.22;2.55;;;19.90;50.00;;;;;;5032992;28;20092;-62
2022/01/20 03:06:41;;;;;;;4.95;1.67;;;19.90;50.10;;;;;;5033981;28;20037;-62
2022/01/20 03:09:06;;;;;;;5.45;1.90;;;19.90;50.00;;;;;;5033457;28;20052;-62
2022/01/20 03:11:33;;;;;;;7.40;1.92;;;19.90;50.00;;;;;;5033799;28;20061;-62
2022/01/20 03:13:59;;;;;;;5.88;2.10;;;19.90;50.00;;;;;;5033836;28;20414;-62
2022/01/20 03:16:24;;;;;;;6.32;2.35;;;19.90;49.90;;;;;;5032817;28;20042;-61
2022/01/20 03:18:50;;;;;;;5.85;1.70;;;19.90;49.90;;;;;;5033916;28;20540;-62
2022/01/20 03:21:15;;;;;;;4.35;1.95;;;19.90;49.90;;;;;;5015591;28;20048;-62
2022/01/20 03:23:41;;;;;;;4.90;1.60;;;19.90;49.80;;;;;;5033278;28;20045;-62
2022/01/20 03:26:06;;;;;;;5.03;1.83;;;19.90;49.80;;;;;;5033671;28;20132;-62
2022/01/20 03:28:32;;;;;;;5.78;2.00;;;20.00;49.90;;;;;;5033333;28;20057;-62
2022/01/20 03:30:57;;;;;;;5.05;1.48;;;19.90;49.80;;;;;;5032580;28;20049;-62
2022/01/20 03:33:23;;;;;;;4.05;1.70;;;20.00;49.90;;;;;;5033139;28;20043;-62
2022/01/20 03:35:50;;;;;;;4.68;1.70;;;20.00;49.90;;;;;;5032958;28;20045;-62
2022/01/20 03:38:15;;;;;;;4.32;1.50;;;19.90;49.80;;;;;;5032321;28;20465;-62
2022/01/20 03:40:41;;;;;;;4.70;1.42;;;20.00;49.90;;;;;;5033581;28;20072;-62
2022/01/20 03:43:06;;;;;;;3.90;1.60;;;20.00;49.90;;;;;;5033651;28;20377;-62
2022/01/20 03:45:32;;;;;;;3.47;1.10;;;20.00;49.80;;;;;;5032323;28;20045;-62
2022/01/20 03:48:06;;;;;;;4.55;1.40;;;20.00;49.90;;;;;;5033249;28;20055;-62
2022/01/20 03:53:17;;;;;;;5.55;1.55;;;20.00;49.90;;;;;;5032141;28;20065;-62
2022/01/20 03:55:43;;;;;;;6.15;1.52;;;20.00;49.80;;;;;;5033205;28;20049;-62
2022/01/20 03:58:08;;;;;;;3.40;1.13;;;20.00;49.80;;;;;;5032178;28;20044;-62
2022/01/20 04:00:34;;;;;;;5.80;1.35;;;20.00;49.80;;;;;;5032425;28;20155;-62
2022/01/20 04:02:59;;;;;;;4.10;1.20;;;20.10;49.90;;;;;;5032960;28;20041;-62
2022/01/20 04:05:25;;;;;;;3.78;0.98;;;20.00;49.80;;;;;;5031987;28;20103;-62
2022/01/20 04:07:50;;;;;;;3.88;1.15;;;20.00;49.80;;;;;;5033211;28;20076;-62
2022/01/20 04:10:16;;;;;;;3.83;1.17;;;20.10;49.90;;;;;;5032501;28;20374;-62
2022/01/20 04:12:41;;;;;;;4.60;1.63;;;20.10;49.90;;;;;;5032232;28;20042;-62
2022/01/20 04:15:09;;;;;;;3.72;0.90;;;20.10;49.80;;;;;;5032986;28;20056;-62
2022/01/20 04:17:35;;;;;;;4.93;0.87;;;20.10;49.70;;;;;;5032474;28;20488;-62
2022/01/20 04:20:02;;;;;;;5.00;1.10;;;20.10;49.70;;;;;;5032084;28;20041;-62
2022/01/20 04:22:30;;;;;;;5.95;1.30;;;20.10;49.70;;;;;;5032703;28;20477;-62
2022/01/20 04:24:56;;;;;;;3.85;1.20;;;20.10;49.70;;;;;;5033013;28;20052;-62
2022/01/20 04:27:21;;;;;;;6.18;1.15;;;20.10;49.60;;;;;;5030058;28;20049;-62
2022/01/20 04:29:47;;;;;;;5.60;1.30;;;20.10;49.60;;;;;;5032428;28;20080;-62
2022/01/20 04:32:12;;;;;;;3.53;0.82;;;20.10;49.60;;;;;;5032610;28;20088;-62
2022/01/20 04:34:38;;;;;;;5.15;1.08;;;20.10;49.60;;;;;;5031659;28;20444;-62
2022/01/20 04:37:05;;;;;;;3.65;0.80;;;20.10;49.60;;;;;;5032444;28;20046;-62
2022/01/20 04:39:33;;;;;;;4.80;1.10;;;20.10;49.60;;;;;;5032341;28;20084;-62
2022/01/20 04:41:59;;;;;;;3.60;1.08;;;20.20;49.60;;;;;;5031819;28;20037;-62
2022/01/20 04:47:22;;;;;;;4.22;1.02;;;20.20;49.50;;;;;;5032331;28;20132;-64
2022/01/20 04:58:00;;;;;;;5.05;1.25;;;20.10;49.30;;;;;;5032583;28;20041;-62
2022/01/20 05:00:25;;;;;;;4.70;0.90;;;20.10;49.30;;;;;;5029093;28;22900;-61
2022/01/20 05:02:51;;;;;;;4.20;0.90;;;20.10;49.30;;;;;;5011915;28;20059;-62
2022/01/20 05:05:16;;;;;;;5.35;1.00;;;20.10;49.20;;;;;;5011364;28;20902;-62
2022/01/20 05:07:42;;;;;;;5.72;1.10;;;20.20;49.20;;;;;;5012485;28;20073;-62
2022/01/20 05:10:11;;;;;;;4.43;1.08;;;20.20;49.30;;;;;;5013128;28;20548;-62
2022/01/20 05:13:22;;;;;;;3.67;0.82;;;20.20;49.30;;;;;;5016904;28;20046;-62
2022/01/20 05:15:26;;;;;;;3.28;0.90;;;20.20;49.30;;;;;;5006843;28;20104;-62
2022/01/20 05:17:52;;;;;;;4.57;1.10;;;20.20;49.30;;;;;;5016443;28;20046;-62
2022/01/20 05:20:18;;;;;;;4.28;1.17;;;20.20;49.20;;;;;;5016049;28;20557;-62
2022/01/20 05:22:43;;;;;;;4.93;0.88;;;20.20;49.20;;;;;;5015617;28;20157;-62
2022/01/20 05:25:09;;;;;;;4.95;1.02;;;20.20;49.10;;;;;;5016176;28;20128;-62
2022/01/20 05:27:34;;;;;;;3.92;0.95;;;20.20;49.20;;;;;;5015791;28;20041;-62
2022/01/20 05:30:00;;;;;;;5.30;0.95;;;20.20;49.10;;;;;;5015553;28;20054;-62
2022/01/20 05:32:25;;;;;;;3.45;0.70;;;20.20;49.10;;;;;;5015544;28;20065;-62
2022/01/20 05:34:51;;;;;;;3.10;0.93;;;20.30;49.20;;;;;;5015852;28;20459;-62
2022/01/20 05:37:16;;;;;;;4.40;1.10;;;20.20;49.10;;;;;;5014994;28;20038;-62
2022/01/20 05:39:42;;;;;;;3.90;0.80;;;20.20;49.10;;;;;;5016060;28;20531;-62
2022/01/20 05:42:08;;;;;;;2.53;0.90;;;20.20;49.10;;;;;;5016019;28;20417;-62
2022/01/20 05:44:33;;;;;;;3.78;0.98;;;20.20;49.10;;;;;;5014685;28;20054;-62
2022/01/20 05:47:05;;;;;;;5.05;0.90;;;20.20;49.10;;;;;;5016063;28;20049;-62
2022/01/20 05:49:30;;;;;;;4.57;0.90;;;20.30;49.10;;;;;;5015421;28;20057;-62
2022/01/20 05:51:56;;;;;;;3.88;0.73;;;20.20;48.90;;;;;;5015248;28;20041;-62
2022/01/20 05:54:21;;;;;;;5.07;1.00;;;20.20;49.00;;;;;;5015679;28;20048;-62
2022/01/20 05:56:47;;;;;;;3.65;0.98;;;20.30;49.00;;;;;;5015704;28;20048;-62
2022/01/20 05:59:12;;;;;;;4.03;0.90;;;20.30;49.00;;;;;;5014447;28;20124;-62
2022/01/20 06:01:38;;;;;;;4.13;0.90;;;20.20;48.80;;;;;;5015287;28;20524;-62
2022/01/20 06:04:06;;;;;;;3.80;0.90;;;20.30;48.80;;;;;;5015696;28;20100;-62
2022/01/20 06:06:31;;;;;;;3.20;0.70;;;20.30;48.80;;;;;;5014623;28;20050;-62
2022/01/20 06:08:57;;;;;;;4.22;1.08;;;20.30;48.70;;;;;;5015577;28;20053;-62
2022/01/20 06:11:22;;;;;;;4.50;0.85;;;20.30;48.70;;;;;;4997429;28;20486;-62
2022/01/20 06:13:48;;;;;;;3.75;0.88;;;20.30;48.70;;;;;;5014783;28;20492;-62
2022/01/20 06:16:13;;;;;;;4.22;0.88;;;20.30;48.60;;;;;;5015431;28;20048;-62
2022/01/20 06:18:39;;;;;;;5.00;0.68;;;20.30;48.60;;;;;;5015290;28;20469;-62
2022/01/20 06:21:04;;;;;;;3.00;0.88;;;20.30;48.60;;;;;;5014580;28;20049;-62
2022/01/20 06:23:30;;;;;;;3.00;0.68;;;20.30;48.50;;;;;;5014905;28;20041;-61
2022/01/20 06:25:56;;;;;;;4.68;1.00;;;20.30;48.50;;;;;;5014150;28;20038;-62
2022/01/20 06:28:22;;;;;;;4.03;1.00;;;20.30;48.50;;;;;;5014900;28;20050;-62
2022/01/20 06:30:48;;;;;;;4.88;1.10;;;20.30;48.50;;;;;;5030213;28;20053;-62
2022/01/20 06:33:13;;;;;;;6.28;0.88;;;20.30;48.50;;;;;;5033547;28;20050;-61
2022/01/20 06:35:39;;;;;;;4.80;0.90;;;20.30;48.40;;;;;;5034372;28;20370;-62
2022/01/20 06:38:04;;;;;;;2.58;0.60;;;20.30;48.50;;;;;;5034831;28;20503;-62
2022/01/20 06:40:31;;;;;;;3.10;0.60;;;20.30;48.40;;;;;;5033693;28;20120;-62
2022/01/20 06:42:56;;;;;;;5.18;0.90;;;20.30;48.40;;;;;;5034742;28;20052;-61
2022/01/20 06:45:23;;;;;;;2.83;0.88;;;20.30;48.40;;;;;;5034280;28;20038;-62
2022/01/20 06:47:49;;;;;;;4.82;0.70;;;20.30;48.40;;;;;;5033541;28;20608;-62
2022/01/20 06:50:14;;;;;;;5.22;0.85;;;20.30;48.50;;;;;;5033829;28;20048;-62
2022/01/20 06:52:40;;;;;;;4.50;0.77;;;20.30;48.30;;;;;;5034538;28;20371;-62
2022/01/20 06:55:07;;;;;;;5.00;0.80;;;20.30;48.30;;;;;;5033777;28;20504;-62
2022/01/20 06:57:36;;;;;;;5.13;0.85;;;20.30;48.30;;;;;;5033865;28;20497;-62
2022/01/20 07:00:06;;;;;;;5.00;1.00;;;20.30;48.30;;;;;;5034161;28;20145;-62
2022/01/20 07:02:32;;;;;;;4.85;0.95;;;20.30;48.20;;;;;;4999773;28;20236;-62
2022/01/20 07:04:57;;;;;;;3.65;0.73;;;20.30;48.30;;;;;;5034142;28;20428;-62
2022/01/20 07:07:23;;;;;;;3.85;0.70;;;20.30;48.30;;;;;;5033888;28;20053;-62
2022/01/20 07:09:48;;;;;;;3.28;0.70;;;20.30;48.30;;;;;;5033210;28;20091;-62
2022/01/20 07:12:14;;;;;;;3.85;0.63;;;20.30;48.30;;;;;;5033532;28;20041;-62
2022/01/20 07:14:39;;;;;;;3.08;0.63;;;20.30;48.40;;;;;;5034070;28;20052;-62
2022/01/20 07:17:05;;;;;;;3.42;0.82;;;20.40;48.30;;;;;;5033512;28;20042;-62
2022/01/20 07:19:31;;;;;;;3.95;0.77;;;20.40;48.20;;;;;;5016562;28;20443;-62
2022/01/20 07:21:57;;;;;;;4.78;1.25;;;20.40;48.30;;;;;;5033918;28;20500;-61
2022/01/20 07:24:22;;;;;;;4.28;0.98;;;20.40;48.30;;;;;;5033099;28;20041;-62
2022/01/20 07:26:48;;;;;;;5.35;0.70;;;20.40;48.30;;;;;;5033755;28;20393;-62
2022/01/20 07:29:14;;;;;;;4.53;0.60;;;20.40;48.30;;;;;;5032540;28;20187;-62
2022/01/20 07:31:40;;;;;;;3.20;0.70;;;20.40;48.30;;;;;;5033981;28;20041;-62
2022/01/20 07:34:05;;;;;;;2.90;0.98;;;20.40;48.30;;;;;;5033335;28;20038;-62
2022/01/20 07:36:31;;;;;;;3.83;0.60;;;20.40;48.30;;;;;;5032466;28;20873;-62
2022/01/20 07:38:56;;;;;;;3.70;0.73;;;20.40;48.30;;;;;;5033822;28;20038;-62
2022/01/20 07:41:22;;;;;;;3.72;0.65;;;20.40;48.30;;;;;;5033069;28;20037;-62
2022/01/20 07:43:47;;;;;;;3.05;0.73;;;20.40;48.30;;;;;;5032833;28;20045;-62
2022/01/20 07:46:13;;;;;;;4.72;0.93;;;20.40;48.30;;;;;;5033290;28;20095;-64
2022/01/20 07:48:38;;;;;;;5.72;1.10;;;20.40;48.30;;;;;;5027875;28;20128;-62
2022/01/20 07:51:05;;;;;;;4.47;0.80;;;20.40;48.20;;;;;;5012668;28;20050;-63
2022/01/20 07:53:32;;;;;;;4.15;0.70;;;20.40;48.20;;;;;;5018022;28;20469;-62
2022/01/20 07:55:58;;;;;;;2.63;0.50;;;20.40;48.30;;;;;;5033259;28;20048;-62
2022/01/20 07:58:24;;;;;;;4.50;0.95;;;20.40;48.30;;;;;;5032461;28;20049;-61
2022/01/20 08:00:49;;;;;;;3.28;0.90;;;20.40;48.30;;;;;;5032882;28;20053;-61
2022/01/20 08:03:15;;;;;;;3.75;0.90;;;20.40;48.40;;;;;;5032953;28;20540;-61
2022/01/20 08:05:40;;;;;;;6.53;0.90;;;20.40;48.40;;;;;;5032537;28;20075;-62
2022/01/20 08:08:06;;;;;;;3.20;0.85;;;20.50;48.30;;;;;;5033130;28;20050;-62
2022/01/20 08:10:31;;;;;;;3.05;1.00;;;20.40;48.10;;;;;;5032654;28;20481;-62
2022/01/20 08:12:57;;;;;;;4.80;1.02;;;20.40;47.90;;;;;;5032333;28;20045;-61
2022/01/20 08:15:22;;;;;;;3.70;1.17;;;20.40;47.60;;;;;;5032738;28;20045;-61
2022/01/20 08:17:48;;;;;;;4.05;1.02;;;20.40;47.40;;;;;;5033091;28;20084;-61
2022/01/20 08:20:13;;;;;;;3.95;0.88;;;20.30;47.20;;;;;;5031848;28;20088;-61
2022/01/20 08:22:39;;;;;;;4.35;1.10;;;20.30;46.90;;;;;;5033057;28;20041;-62
2022/01/20 08:25:07;;;;;;;6.75;1.10;;;20.30;46.60;;;;;;5031948;28;20037;-60
2022/01/20 08:27:32;;;;;;;3.03;0.93;;;20.30;46.40;;;;;;5032033;28;20053;-61
2022/01/20 08:29:58;;;;;;;5.93;0.88;;;20.30;46.30;;;;;;5033015;28;20045;-61
2022/01/20 08:32:23;;;;;;;5.03;0.93;;;20.20;46.20;;;;;;5023431;28;20092;-63
2022/01/20 08:34:49;;;;;;;5.85;1.00;;;20.20;46.00;;;;;;5012293;28;20053;-62
2022/01/20 08:37:14;;;;;;;5.45;1.02;;;20.20;45.90;;;;;;5012289;28;20042;-63
2022/01/20 08:39:44;;;;;;;6.95;1.02;;;20.20;45.90;;;;;;5011632;28;20727;-63
2022/01/20 08:42:10;;;;;;;6.80;1.13;;;20.20;45.80;;;;;;5013990;28;20076;-60
2022/01/20 08:44:36;;;;;;;6.18;1.00;;;20.20;45.60;;;;;;5021502;28;20057;-61
2022/01/20 08:47:02;;;;;;;5.90;1.05;;;20.20;45.80;;;;;;5020015;28;20094;-60
2022/01/20 08:49:28;;;;;;;6.00;0.98;;;20.20;45.80;;;;;;5021261;28;20042;-62
2022/01/20 08:51:54;;;;;;;6.32;1.10;;;20.20;45.90;;;;;;5022050;28;20045;-61
2022/01/20 08:54:20;;;;;;;5.15;1.00;;;20.20;45.90;;;;;;5020319;28;20389;-61
2022/01/20 08:56:45;;;;;;;5.22;0.90;;;20.20;45.80;;;;;;5023295;28;20121;-62
2022/01/20 08:59:12;;;;;;;7.30;1.10;;;20.30;45.80;;;;;;5021580;28;20060;-63
2022/01/20 09:01:39;;;;;;;7.22;1.20;;;20.30;45.80;;;;;;5020712;28;20033;-63
2022/01/20 09:04:05;;;;;;;5.00;1.08;;;20.20;45.70;;;;;;5023139;28;20049;-61
2022/01/20 09:06:30;;;;;;;4.32;0.85;;;20.20;45.60;;;;;;5021090;28;20060;-62
2022/01/20 09:08:56;;;;;;;4.82;0.75;;;20.20;45.60;;;;;;5020794;28;20084;-63
2022/01/20 09:11:24;;;;;;;4.38;0.88;;;20.30;45.60;;;;;;5022912;28;20041;-62
2022/01/20 09:16:36;;;;;;;8.65;1.27;;;20.30;45.50;;;;;;5018462;28;20041;-61
2022/01/20 09:19:01;;;;;;;4.47;0.80;;;20.30;45.30;;;;;;5019551;28;20373;-60
2022/01/20 09:21:28;;;;;;;8.35;1.30;;;20.30;45.30;;;;;;5017086;28;20080;-61
2022/01/20 09:23:54;;;;;;;7.00;1.30;;;20.30;45.30;;;;;;5018351;28;20496;-61
2022/01/20 09:26:19;;;;;;;5.03;1.10;;;20.30;45.30;;;;;;5019364;28;20043;-61
2022/01/20 09:28:45;;;;;;;4.97;1.10;;;20.40;45.40;;;;;;5019769;28;20046;-62
2022/01/20 09:31:10;;;;;;;5.80;1.35;;;20.40;45.20;;;;;;5012757;28;20042;-61
2022/01/20 09:33:36;;;;;;;6.88;1.45;;;20.40;45.10;;;;;;5012145;28;20052;-60
2022/01/20 09:36:02;;;;;;;5.70;1.40;;;20.40;45.10;;;;;;5011383;28;20049;-61
2022/01/20 09:38:28;;;;;;;5.85;1.63;;;20.40;44.90;;;;;;5011911;28;20048;-64
2022/01/20 09:40:53;;;;;;;7.85;1.83;;;20.40;44.80;;;;;;5012027;28;20052;-62
2022/01/20 09:43:19;;;;;;;7.20;1.08;;;20.40;44.50;;;;;;5011195;28;20550;-63
2022/01/20 09:45:54;;;;;;;9.40;1.55;;;20.50;44.60;;;;;;5012389;28;20152;-63
2022/01/20 09:48:20;;;;;;;5.05;1.20;;;20.40;44.60;;;;;;5012097;28;20038;-62
2022/01/20 09:50:46;;;;;;;6.68;1.42;;;20.50;44.70;;;;;;5011321;28;20394;-62
2022/01/20 09:53:12;;;;;;;4.10;1.00;;;20.50;44.70;;;;;;5012302;28;20042;-62
2022/01/20 09:55:38;;;;;;;4.78;1.02;;;20.50;44.80;;;;;;5012059;28;20053;-61
2022/01/20 09:58:04;;;;;;;4.72;1.25;;;20.50;45.50;;;;;;5015106;28;20112;-61
2022/01/20 10:00:30;;;;;;;5.85;1.13;;;20.50;44.90;;;;;;5015083;28;20087;-62
2022/01/20 10:03:08;;;;;;;6.68;1.27;;;20.50;45.00;;;;;;5015797;28;20077;-62
2022/01/20 10:05:37;;;;;;;;;;;20.50;45.00;;;;;;5015101;28;20045;-62
2022/01/20 10:08:14;;;;;;;4.43;1.00;;;20.50;45.20;;;;;;5015651;28;20024;-62
2022/01/20 10:10:47;;;;;;;3.38;0.80;;;20.50;45.10;;;;;;5015468;28;20564;-61
2022/01/20 10:13:14;;;;;;;4.03;1.00;;;20.50;45.10;;;;;;5015019;28;20046;-62
2022/01/20 10:15:39;;;;;;;6.32;0.95;;;20.50;45.10;;;;;;5015129;28;20042;-61
2022/01/20 10:18:09;;;;;;;7.13;0.98;;;20.50;45.10;;;;;;5014525;28;20057;-61
2022/01/20 10:20:35;;;;;;;8.07;0.85;;;20.60;45.30;;;;;;5015001;28;20050;-61
2022/01/20 10:23:00;;;;;;;4.80;1.02;;;20.60;45.40;;;;;;5014741;28;20072;-62
2022/01/20 10:25:26;;;;;;;4.35;0.70;;;20.50;45.50;;;;;;5013306;28;20121;-62
2022/01/20 10:27:54;;;;;;;5.18;1.02;;;20.60;46.60;;;;;;5014521;28;20127;-61
2022/01/20 10:30:20;;;;;;;7.47;1.27;;;20.60;46.00;;;;;;5014039;28;20042;-62
2022/01/20 10:32:47;;;;;;;4.80;0.95;;;20.60;46.10;;;;;;5022113;28;20037;-61
2022/01/20 10:35:14;;;;;;;3.95;1.20;;;20.60;46.20;;;;;;5006161;28;20034;-61
2022/01/20 10:37:40;;;;;;;5.13;1.20;;;20.60;46.20;;;;;;5024221;28;20044;-61
2022/01/20 10:40:13;;;;;;;6.15;1.35;;;20.70;46.40;;;;;;5022186;28;20430;-61
2022/01/20 10:42:41;;;;;;;4.65;1.20;;;20.70;46.60;;;;;;5023027;28;20045;-62
2022/01/20 10:45:07;;;;;;;2.73;0.80;;;20.70;46.70;;;;;;5024940;28;20030;-61
2022/01/20 10:47:36;;;;;;;5.70;0.90;;;20.70;46.80;;;;;;5023813;28;20042;-61
2022/01/20 10:50:12;;;;;;;4.97;1.13;;;20.70;46.80;;;;;;5023218;28;20042;-63
2022/01/20 10:52:38;;;;;;;5.03;1.30;;;20.70;46.80;;;;;;5014688;28;20038;-62
2022/01/20 10:55:04;;;;;;;6.30;1.20;;;20.70;46.90;;;;;;5013826;28;20050;-63
2022/01/20 10:57:32;;;;;;;5.18;0.80;;;20.70;46.90;;;;;;5014518;28;20042;-63
2022/01/20 11:00:01;;;;;;;6.57;1.50;;;20.70;46.90;;;;;;5014394;28;20061;-62
2022/01/20 11:02:29;;;;;;;5.20;0.90;;;20.70;46.80;;;;;;5014330;28;20129;-62
2022/01/20 11:04:55;;;;;;;5.07;1.17;;;20.70;46.80;;;;;;5021847;28;20045;-62
2022/01/20 11:07:21;;;;;;;4.63;1.02;;;20.70;46.90;;;;;;5021747;28;20045;-64
2022/01/20 11:09:51;;;;;;;3.75;0.88;;;20.70;47.00;;;;;;5017965;28;20049;-63
2022/01/20 11:12:17;;;;;;;5.90;1.10;;;20.80;47.00;;;;;;5013991;28;20054;-64
2022/01/20 11:14:45;;;;;;;4.63;1.10;;;20.80;46.80;;;;;;5013684;28;20060;-64
2022/01/20 11:17:17;;;;;;;3.40;1.08;;;20.70;46.80;;;;;;5014224;28;20099;-64
2022/01/20 11:19:45;;;;;;;7.43;1.00;;;20.80;46.90;;;;;;5014220;28;20042;-64
2022/01/20 11:22:12;;;;;;;4.63;0.97;;;20.80;46.90;;;;;;5013333;28;20176;-62
2022/01/20 11:24:38;;;;;;;5.47;1.00;;;20.80;46.90;;;;;;5033638;28;20489;-62
2022/01/20 11:27:05;;;;;;;5.72;1.40;;;20.80;46.80;;;;;;5033551;28;20045;-62
2022/01/20 11:29:47;;;;;;;4.05;0.80;;;20.80;46.60;;;;;;5032322;28;20472;-62
2022/01/20 11:32:26;;;;;;;5.85;0.90;;;20.80;46.50;;;;;;5033386;28;20041;-62
2022/01/20 11:35:02;;;;;;;5.57;0.80;;;20.80;46.50;;;;;;5033727;28;20179;-62
2022/01/20 11:37:32;;;;;;;3.05;0.85;;;20.80;46.60;;;;;;5033066;28;20053;-62
2022/01/20 11:40:25;;;;;;;3.92;0.90;;;20.80;46.50;;;;;;5033802;28;20068;-62
2022/01/20 11:42:58;;;;;;;4.13;0.80;;;20.80;46.60;;;;;;5032996;28;20042;-61
2022/01/20 11:45:28;;;;;;;4.43;0.90;;;20.80;46.70;;;;;;5033317;28;20053;-62
2022/01/20 11:47:55;;;;;;;5.75;1.13;;;20.80;46.70;;;;;;5033365;28;20053;-62
2022/01/20 11:50:21;;;;;;;4.63;0.80;;;20.80;46.60;;;;;;5006783;28;20042;-60
2022/01/20 11:52:46;;;;;;;5.10;1.00;;;20.80;46.70;;;;;;5024311;28;20060;-60
2022/01/20 11:55:15;;;;;;;4.10;0.82;;;20.80;46.70;;;;;;5022028;28;20045;-60
2022/01/20 11:57:41;;;;;;;4.00;0.75;;;20.80;46.70;;;;;;5022294;28;20136;-60
2022/01/20 12:00:24;;;;;;;5.35;1.00;;;20.80;46.80;;;;;;5023801;28;20072;-60
2022/01/20 12:02:50;;;;;;;7.00;1.52;;;20.80;46.80;;;;;;5024171;28;20057;-61
2022/01/20 12:05:18;;;;;;;5.00;1.00;;;20.80;46.80;;;;;;5021323;28;20046;-60
2022/01/20 12:07:44;;;;;;;5.38;1.17;;;20.80;46.90;;;;;;5022351;28;20029;-60
2022/01/20 12:10:17;;;;;;;7.53;1.38;;;20.80;46.90;;;;;;5015775;28;20405;-60
2022/01/20 12:12:43;;;;;;;7.43;1.20;;;20.80;46.80;;;;;;5012683;28;20049;-61
2022/01/20 12:15:14;;;;;;;7.57;1.50;;;20.80;47.00;;;;;;5016458;28;20037;-60
2022/01/20 12:17:53;;;;;;;6.43;1.00;;;20.80;47.00;;;;;;5022536;28;20041;-60
2022/01/20 12:20:25;;;;;;;5.78;1.10;;;20.80;47.00;;;;;;5020238;28;20120;-61
2022/01/20 12:22:51;;;;;;;4.82;1.10;;;20.80;47.00;;;;;;5013303;28;20137;-60
2022/01/20 12:25:19;;;;;;;6.22;1.33;;;20.80;47.00;;;;;;5013117;28;20477;-60
2022/01/20 12:27:45;;;;;;;4.70;0.90;;;20.80;46.90;;;;;;5021359;28;20124;-61
2022/01/20 12:30:17;;;;;;;3.97;0.80;;;20.80;47.00;;;;;;5032655;28;20129;-60
2022/01/20 12:32:44;;;;;;;5.07;1.35;;;20.80;47.00;;;;;;5014435;28;20044;-60
2022/01/20 12:35:10;;;;;;;4.40;1.10;;;20.90;47.00;;;;;;5032433;28;20493;-61
2022/01/20 12:37:39;;;;;;;7.68;1.10;;;20.90;47.00;;;;;;5014790;28;20041;-62
2022/01/20 12:40:16;;;;;;;5.55;1.15;;;20.90;46.90;;;;;;5032517;28;20142;-60
2022/01/20 12:42:42;;;;;;;5.90;1.25;;;20.80;46.70;;;;;;5029092;28;20041;-60
2022/01/20 12:47:52;;;;;;;4.13;0.95;;;20.90;46.70;;;;;;5030867;28;20128;-59
2022/01/20 12:50:17;;;;;;;6.05;1.08;;;20.90;46.70;;;;;;5014707;28;20449;-60
2022/01/20 12:52:49;;;;;;;8.25;1.38;;;20.90;46.70;;;;;;5031546;28;20034;-60
2022/01/20 12:55:17;;;;;;;4.43;0.80;;;20.90;46.60;;;;;;5032245;28;20049;-61
2022/01/20 12:57:43;;;;;;;6.78;1.13;;;20.90;46.60;;;;;;5032748;28;20056;-60
2022/01/20 13:00:09;;;;;;;4.20;0.70;;;20.90;46.60;;;;;;5012949;28;20054;-60
2022/01/20 13:02:34;;;;;;;3.70;1.27;;;20.90;46.60;;;;;;5032417;28;20038;-60
2022/01/20 13:05:02;;;;;;;4.50;0.80;;;20.90;46.60;;;;;;5032201;28;20077;-60
2022/01/20 13:07:29;;;;;;;2.58;0.90;;;20.90;46.60;;;;;;5021453;28;20045;-61
2022/01/20 13:10:04;;;;;;;4.07;0.82;;;20.90;46.50;;;;;;5012576;28;20049;-60
2022/01/20 13:12:41;;;;;;;4.53;0.85;;;20.90;46.50;;;;;;5012174;28;20041;-60
2022/01/20 13:15:17;;;;;;;4.28;0.98;;;20.90;46.60;;;;;;5018309;28;20045;-60
2022/01/20 13:17:43;;;;;;;5.57;0.80;;;20.90;46.50;;;;;;5032041;28;20053;-60
2022/01/20 13:20:19;;;;;;;7.53;0.90;;;20.90;46.40;;;;;;5032297;28;20041;-60
2022/01/20 13:22:55;;;;;;;3.75;0.80;;;20.90;46.50;;;;;;5031622;28;20064;-60
2022/01/20 13:25:31;;;;;;;5.15;0.82;;;20.90;46.50;;;;;;5032161;28;20056;-60
2022/01/20 13:28:04;;;;;;;6.55;1.00;;;20.90;46.40;;;;;;5031649;28;20049;-60
2022/01/20 13:30:56;;;;;;;8.75;1.13;;;20.90;46.50;;;;;;5030849;28;20045;-60
2022/01/20 13:33:23;;;;;;;4.32;0.88;;;20.90;47.20;;;;;;5033392;28;20057;-60
2022/01/20 13:35:56;;;;;;;3.55;0.90;;;20.90;46.50;;;;;;5035110;28;20080;-60
2022/01/20 13:38:29;;;;;;;3.40;0.90;;;20.90;46.50;;;;;;5035755;28;20041;-60
2022/01/20 13:41:07;;;;;;;4.63;1.08;;;20.90;46.40;;;;;;5035890;28;20628;-60
2022/01/20 13:46:20;;;;;;;5.85;0.93;;;20.90;46.40;;;;;;5035870;28;20046;-60
2022/01/20 13:48:46;;;;;;;3.92;0.85;;;20.90;46.40;;;;;;5036002;28;20049;-60
2022/01/20 13:51:14;;;;;;;4.35;0.88;;;20.90;46.40;;;;;;5034617;28;20449;-60
2022/01/20 13:53:40;;;;;;;6.72;1.20;;;20.90;46.30;;;;;;5002101;28;20477;-60
2022/01/20 13:56:10;;;;;;;3.88;1.00;;;20.90;46.20;;;;;;5034892;28;20049;-60